createdAt,value
2019-04-23T00:00:45.310Z,65.40
2019-04-23T00:03:12.838Z,64.70
2019-04-23T00:06:08.541Z,64.50
2019-04-23T00:08:36.197Z,64.60
2019-04-23T00:11:05.366Z,64.30
2019-04-23T00:13:45.419Z,64.20
2019-04-23T00:16:12.912Z,64.30
2019-04-23T00:18:43.779Z,65.30
2019-04-23T00:21:27.969Z,64.80
2019-04-23T00:24:03.009Z,64.50
2019-04-23T00:26:35.493Z,64.40
2019-04-23T00:31:31.148Z,64.10
2019-04-23T00:33:57.796Z,64.50
2019-04-23T00:36:32.054Z,64.70
2019-04-23T00:38:54.016Z,64.50
2019-04-23T00:41:33.438Z,64.40
2019-04-23T00:44:04.083Z,64.70
2019-04-23T00:46:35.043Z,65.00
2019-04-23T00:49:05.839Z,65.10
2019-04-23T00:51:38.258Z,65.20
2019-04-23T00:54:14.430Z,65.30
2019-04-23T00:56:54.554Z,65.10
2019-04-23T00:59:08.279Z,65.10
2019-04-23T01:01:47.659Z,65.10
2019-04-23T01:04:08.492Z,65.40
2019-04-23T01:06:37.847Z,65.20
2019-04-23T01:09:08.489Z,65.70
2019-04-23T01:11:39.227Z,65.50
2019-04-23T01:14:10.084Z,65.80
2019-04-23T01:16:37.926Z,65.70
2019-04-23T01:19:24.571Z,66.30
2019-04-23T01:21:45.326Z,66.50
2019-04-23T01:24:35.241Z,66.00
2019-04-23T01:27:52.754Z,66.30
2019-04-23T01:35:13.454Z,66.80
2019-04-23T01:37:36.810Z,66.50
2019-04-23T01:40:07.687Z,66.80
2019-04-23T01:42:40.487Z,66.50
2019-04-23T01:45:07.319Z,66.70
2019-04-23T01:47:39.023Z,66.80
2019-04-23T01:52:55.045Z,67.50
2019-04-23T01:55:08.337Z,67.80
2019-04-23T01:57:40.915Z,68.00
2019-04-23T02:02:44.320Z,68.00
2019-04-23T02:05:15.703Z,68.30
2019-04-23T02:07:44.344Z,68.30
2019-04-23T02:10:16.810Z,68.70
2019-04-23T02:12:44.245Z,68.60
2019-04-23T02:15:13.770Z,68.70
2019-04-23T02:17:47.786Z,68.80
2019-04-23T02:20:17.842Z,69.20
2019-04-23T02:22:51.867Z,69.40
2019-04-23T02:25:33.979Z,69.50
2019-04-23T02:28:12.328Z,69.10
2019-04-23T02:33:12.698Z,68.50
2019-04-23T02:35:46.570Z,68.40
2019-04-23T02:38:15.070Z,68.80
2019-04-23T02:40:46.464Z,68.90
2019-04-23T02:45:39.244Z,68.90
2019-04-23T02:48:10.504Z,69.10
2019-04-23T02:53:04.790Z,69.20
2019-04-23T02:55:43.279Z,69.40
2019-04-23T02:58:11.168Z,69.70
2019-04-23T03:00:55.594Z,69.60
2019-04-23T03:05:46.618Z,70.10
2019-04-23T03:08:13.766Z,70.40
2019-04-23T03:16:04.160Z,70.50
2019-04-23T03:21:09.062Z,70.80
2019-04-23T03:23:44.877Z,70.90
2019-04-23T03:26:23.062Z,70.50
2019-04-23T03:28:43.420Z,70.60
2019-04-23T03:42:12.014Z,71.50
2019-04-23T03:43:47.000Z,71.70
2019-04-23T03:46:26.218Z,71.60
2019-04-23T03:48:51.235Z,72.50
2019-04-23T03:51:11.608Z,71.60
2019-04-23T03:53:52.413Z,71.50
2019-04-23T03:58:42.546Z,71.50
2019-04-23T04:06:37.995Z,71.10
2019-04-23T04:09:00.938Z,71.30
2019-04-23T04:11:19.209Z,71.40
2019-04-23T04:14:01.107Z,71.40
2019-04-23T04:19:03.403Z,71.60
2019-04-23T04:24:03.198Z,71.50
2019-04-23T04:31:32.088Z,72.50
2019-04-23T04:38:57.114Z,71.70
2019-04-23T04:41:34.499Z,72.50
2019-04-23T04:49:01.687Z,71.70
2019-04-23T04:54:12.389Z,71.90
2019-04-23T04:59:04.300Z,72.40
2019-04-23T05:01:50.956Z,73.00
2019-04-23T05:03:57.343Z,72.50
2019-04-23T05:06:39.101Z,72.40
2019-04-23T05:09:00.671Z,72.60
2019-04-23T05:12:01.097Z,72.70
2019-04-23T05:14:26.484Z,72.90
2019-04-23T05:16:50.809Z,72.60
2019-04-23T05:21:58.904Z,73.40
2019-04-23T05:24:31.845Z,72.70
2019-04-23T05:26:55.446Z,73.00
2019-04-23T05:29:30.595Z,72.90
2019-04-23T05:31:52.929Z,73.40
2019-04-23T05:34:24.389Z,73.50
2019-04-23T05:36:53.448Z,73.40
2019-04-23T05:39:31.016Z,73.80
2019-04-23T05:41:53.586Z,73.30
2019-04-23T05:44:29.658Z,73.20
2019-04-23T05:46:59.921Z,73.20
2019-04-23T05:49:26.163Z,72.80
2019-04-23T05:56:55.111Z,73.10
2019-04-23T05:59:45.283Z,73.60
2019-04-23T06:01:57.284Z,73.10
2019-04-23T06:04:30.668Z,73.10
2019-04-23T06:09:50.446Z,73.20
2019-04-23T06:12:01.375Z,72.90
2019-04-23T06:19:30.388Z,73.10
2019-04-23T06:24:35.026Z,73.40
2019-04-23T06:27:09.689Z,73.00
2019-04-23T06:32:01.853Z,73.30
2019-04-23T06:34:33.909Z,73.30
2019-04-23T06:42:07.813Z,72.70
2019-04-23T06:44:54.925Z,71.80
2019-04-23T06:49:51.508Z,72.90
2019-04-23T06:52:21.959Z,70.60
2019-04-23T06:54:56.018Z,70.80
2019-04-23T06:59:48.553Z,70.70
2019-04-23T07:04:58.682Z,71.60
2019-04-23T07:09:52.391Z,69.80
2019-04-23T07:12:37.536Z,69.10
2019-04-23T07:15:13.317Z,69.10
2019-04-23T07:17:24.984Z,70.00
2019-04-23T07:20:00.841Z,68.80
2019-04-23T07:22:28.404Z,69.50
2019-04-23T07:25:04.025Z,68.60
2019-04-23T07:30:08.733Z,67.90
2019-04-23T07:32:33.843Z,68.40
2019-04-23T07:35:07.176Z,67.60
2019-04-23T07:37:57.215Z,66.80
2019-04-23T07:43:00.194Z,66.30
2019-04-23T07:45:51.942Z,65.90
2019-04-23T07:48:23.822Z,65.60
2019-04-23T07:51:10.871Z,67.00
2019-04-23T07:56:05.914Z,67.00
2019-04-23T07:58:28.676Z,66.80
2019-04-23T08:00:57.005Z,68.50
2019-04-23T08:03:30.734Z,67.80
2019-04-23T08:06:05.935Z,67.30
2019-04-23T08:08:30.341Z,65.80
2019-04-23T08:13:50.394Z,66.40
2019-04-23T08:16:19.567Z,66.60
2019-04-23T08:18:45.214Z,65.40
2019-04-23T08:21:10.360Z,62.50
2019-04-23T08:23:52.210Z,64.90
2019-04-23T08:29:06.413Z,64.60
2019-04-23T08:31:35.248Z,64.60
2019-04-23T08:34:12.376Z,64.60
2019-04-23T08:36:35.800Z,64.80
2019-04-23T08:38:57.049Z,63.80
2019-04-23T08:41:33.768Z,64.00
2019-04-23T08:44:21.584Z,64.10
2019-04-23T08:46:57.293Z,64.80
2019-04-23T08:49:31.253Z,64.80
2019-04-23T08:54:39.402Z,64.40
2019-04-23T08:59:33.276Z,62.90
2019-04-23T09:04:31.293Z,62.30
2019-04-23T09:07:04.521Z,61.10
2019-04-23T09:09:27.887Z,62.10
2019-04-23T09:11:54.301Z,62.40
2019-04-23T09:14:22.890Z,62.30
2019-04-23T09:16:57.943Z,61.40
2019-04-23T09:22:08.952Z,61.40
2019-04-23T09:24:33.314Z,61.00
2019-04-23T09:27:09.321Z,60.80
2019-04-23T09:29:40.636Z,60.70
2019-04-23T09:34:51.175Z,59.50
2019-04-23T09:40:09.253Z,60.70
2019-04-23T09:42:54.541Z,60.70
2019-04-23T09:53:12.967Z,60.20
2019-04-23T09:55:35.615Z,59.50
2019-04-23T09:58:08.171Z,55.10
2019-04-23T10:00:48.878Z,60.00
2019-04-23T10:03:26.937Z,59.80
2019-04-23T10:05:51.141Z,59.20
2019-04-23T10:08:21.132Z,58.40
2019-04-23T10:10:44.976Z,57.70
2019-04-23T10:13:14.075Z,58.00
2019-04-23T10:15:47.689Z,58.40
2019-04-23T10:18:14.026Z,58.40
2019-04-23T10:20:44.498Z,54.40
2019-04-23T10:23:14.228Z,58.70
2019-04-23T10:25:43.774Z,59.10
2019-04-23T10:28:16.474Z,59.20
2019-04-23T10:30:45.072Z,59.10
2019-04-23T10:33:13.850Z,58.80
2019-04-23T10:35:51.543Z,58.10
2019-04-23T10:38:17.791Z,58.10
2019-04-23T10:40:46.873Z,57.20
2019-04-23T10:43:15.067Z,57.90
2019-04-23T10:46:15.030Z,57.60
2019-04-23T10:49:11.283Z,58.00
2019-04-23T10:51:52.134Z,57.40
2019-04-23T11:02:28.900Z,57.40
2019-04-23T11:05:00.418Z,57.70
2019-04-23T11:07:26.365Z,57.10
2019-04-23T11:12:33.000Z,57.30
2019-04-23T11:14:57.936Z,56.90
2019-04-23T11:20:01.402Z,56.90
2019-04-23T11:27:30.365Z,57.10
2019-04-23T11:30:00.160Z,56.60
2019-04-23T11:35:11.744Z,56.10
2019-04-23T11:37:45.790Z,56.30
2019-04-23T11:40:04.141Z,55.40
2019-04-23T11:42:26.125Z,56.40
2019-04-23T11:50:14.167Z,55.50
2019-04-23T11:52:39.553Z,56.10
2019-04-23T11:55:00.711Z,55.50
2019-04-23T11:57:41.145Z,55.90
2019-04-23T11:59:59.316Z,54.30
2019-04-23T12:05:32.330Z,55.40
2019-04-23T12:08:03.791Z,55.40
2019-04-23T12:10:43.002Z,55.10
2019-04-23T12:13:03.222Z,54.60
2019-04-23T12:15:32.677Z,54.70
2019-04-23T12:18:03.335Z,53.60
2019-04-23T12:23:19.035Z,54.90
2019-04-23T12:25:37.917Z,54.20
2019-04-23T12:27:59.276Z,54.60
2019-04-23T12:30:39.445Z,53.50
2019-04-23T12:33:06.652Z,55.10
2019-04-23T12:35:47.190Z,54.50
2019-04-23T12:38:08.834Z,54.80
2019-04-23T12:40:46.556Z,55.00
2019-04-23T12:45:37.271Z,54.90
2019-04-23T12:48:16.322Z,53.50
2019-04-23T12:53:20.630Z,54.50
2019-04-23T12:58:14.529Z,53.00
2019-04-23T13:03:16.543Z,53.00
2019-04-23T13:05:53.053Z,53.90
2019-04-23T13:10:48.168Z,53.30
2019-04-23T13:13:23.506Z,53.20
2019-04-23T13:15:48.099Z,53.10
2019-04-23T13:18:17.219Z,54.20
2019-04-23T13:20:41.517Z,53.40
2019-04-23T13:28:37.688Z,50.70
2019-04-23T13:38:36.405Z,49.50
2019-04-23T13:41:13.111Z,53.30
2019-04-23T13:44:32.137Z,53.50
2019-04-23T13:48:27.657Z,54.60
2019-04-23T13:51:09.798Z,54.00
2019-04-23T13:53:39.406Z,53.00
2019-04-23T13:56:18.639Z,52.90
2019-04-23T13:58:38.773Z,52.90
2019-04-23T14:03:40.820Z,52.80
2019-04-23T14:08:47.399Z,52.90
2019-04-23T14:11:22.294Z,52.80
2019-04-23T14:13:56.748Z,52.30
2019-04-23T14:21:20.310Z,51.90
2019-04-23T14:26:32.617Z,52.40
2019-04-23T14:28:46.440Z,52.70
2019-04-23T14:31:13.157Z,52.30
2019-04-23T14:36:14.090Z,52.20
2019-04-23T14:38:43.911Z,52.40
2019-04-23T14:46:34.320Z,52.90
2019-04-23T14:48:57.676Z,52.90
2019-04-23T14:51:38.728Z,52.60
2019-04-23T14:54:03.243Z,53.10
2019-04-23T15:01:27.354Z,53.10
2019-04-23T15:06:30.127Z,51.90
2019-04-23T15:08:57.338Z,52.20
2019-04-23T15:13:53.942Z,52.30
2019-04-23T15:28:41.230Z,51.80
2019-04-23T15:31:32.888Z,51.30
2019-04-23T15:36:41.252Z,49.70
2019-04-23T15:39:24.587Z,52.10
2019-04-23T15:44:08.677Z,50.80
2019-04-23T15:46:40.907Z,51.10
2019-04-23T15:49:14.735Z,51.20
2019-04-23T15:51:48.955Z,51.50
2019-04-23T15:54:13.769Z,50.90
2019-04-23T15:56:47.818Z,51.90
2019-04-23T16:01:37.109Z,53.30
2019-04-23T16:03:47.230Z,53.00
2019-04-23T16:06:20.959Z,52.40
2019-04-23T16:09:06.363Z,52.60
2019-04-23T16:11:45.263Z,52.60
2019-04-23T16:17:04.921Z,52.80
2019-04-23T16:19:19.037Z,52.70
2019-04-23T16:24:17.737Z,53.60
2019-04-23T16:31:47.157Z,54.10
2019-04-23T16:34:23.918Z,53.20
2019-04-23T16:36:55.310Z,53.10
2019-04-23T16:39:25.698Z,53.10
2019-04-23T16:44:29.467Z,53.70
2019-04-23T16:49:23.157Z,52.80
2019-04-23T16:51:57.546Z,53.40
2019-04-23T16:54:31.354Z,53.70
2019-04-23T16:59:24.609Z,53.60
2019-04-23T17:06:57.601Z,54.20
2019-04-23T17:09:37.169Z,53.80
2019-04-23T17:12:06.374Z,53.50
2019-04-23T17:14:23.404Z,54.20
2019-04-23T17:16:56.962Z,54.40
2019-04-23T17:19:28.220Z,54.30
2019-04-23T17:27:14.914Z,55.30
2019-04-23T17:29:35.138Z,54.70
2019-04-23T17:32:16.110Z,55.20
2019-04-23T17:34:58.533Z,57.00
2019-04-23T17:37:26.722Z,55.30
2019-04-23T17:42:49.620Z,55.70
2019-04-23T17:47:57.614Z,56.60
2019-04-23T17:53:00.216Z,55.70
2019-04-23T17:55:36.123Z,56.00
2019-04-23T17:58:03.447Z,56.30
2019-04-23T18:05:16.306Z,56.40
2019-04-23T18:08:01.922Z,56.60
2019-04-23T18:10:37.066Z,56.10
2019-04-23T18:15:24.099Z,56.60
2019-04-23T18:18:13.954Z,57.30
2019-04-23T18:20:38.585Z,57.50
2019-04-23T18:26:00.171Z,57.70
2019-04-23T18:28:30.070Z,57.70
2019-04-23T18:31:10.635Z,57.70
2019-04-23T18:36:14.702Z,58.30
2019-04-23T18:38:50.132Z,61.20
2019-04-23T18:43:48.698Z,57.90
2019-04-23T18:46:25.668Z,57.70
2019-04-23T18:51:35.151Z,57.80
2019-04-23T18:56:48.554Z,57.40
2019-04-23T18:58:54.424Z,58.00
2019-04-23T19:01:25.360Z,57.40
2019-04-23T19:06:34.523Z,57.70
2019-04-23T19:11:59.371Z,57.70
2019-04-23T19:14:31.584Z,58.20
2019-04-23T19:17:25.772Z,58.30
2019-04-23T19:19:29.625Z,59.00
2019-04-23T19:24:28.135Z,59.40
2019-04-23T19:29:30.635Z,59.60
2019-04-23T19:34:36.276Z,61.00
2019-04-23T19:39:29.464Z,59.90
2019-04-23T19:44:34.542Z,60.00
2019-04-23T19:47:06.885Z,59.80
2019-04-23T19:49:35.652Z,60.40
2019-04-23T19:51:57.680Z,60.70
2019-04-23T19:54:44.213Z,60.60
2019-04-23T19:59:40.974Z,61.30
2019-04-23T20:04:39.237Z,61.50
2019-04-23T20:07:20.103Z,61.70
2019-04-23T20:09:46.394Z,61.60
2019-04-23T20:12:05.864Z,61.50
2019-04-23T20:14:41.770Z,61.60
2019-04-23T20:19:44.981Z,63.00
2019-04-23T20:27:14.015Z,62.00
2019-04-23T20:32:15.345Z,62.00
2019-04-23T20:35:02.870Z,62.40
2019-04-23T20:37:47.358Z,62.40
2019-04-23T20:47:29.260Z,62.60
2019-04-23T20:50:05.478Z,63.10
2019-04-23T20:52:13.864Z,63.20
2019-04-23T20:55:02.319Z,62.80
2019-04-23T21:00:25.875Z,63.00
2019-04-23T21:03:25.639Z,63.00
2019-04-23T21:05:21.540Z,63.10
2019-04-23T21:13:05.626Z,63.30
2019-04-23T21:15:39.034Z,63.40
2019-04-23T21:20:35.739Z,63.70
2019-04-23T21:23:06.253Z,64.00
2019-04-23T21:25:31.085Z,64.20
2019-04-23T21:28:17.201Z,64.10
2019-04-23T21:30:57.037Z,64.30
2019-04-23T21:33:11.831Z,64.50
2019-04-23T21:36:12.521Z,69.10
2019-04-23T21:41:29.321Z,64.40
2019-04-23T21:51:46.311Z,64.60
2019-04-23T21:53:51.767Z,64.70
2019-04-23T21:56:23.870Z,64.70
2019-04-23T21:58:57.945Z,64.90
2019-04-23T22:01:36.623Z,65.30
2019-04-23T22:06:47.448Z,65.00
2019-04-23T22:09:22.317Z,70.20
2019-04-23T22:14:17.221Z,65.50
2019-04-23T22:16:58.046Z,65.70
2019-04-23T22:21:50.564Z,65.70
2019-04-23T22:24:32.213Z,65.70
2019-04-23T22:26:49.447Z,66.00
2019-04-23T22:29:26.155Z,66.10
2019-04-23T22:34:31.959Z,66.00
2019-04-23T22:37:03.833Z,66.00
2019-04-23T22:39:26.895Z,66.40
2019-04-23T22:42:00.669Z,66.50
2019-04-23T22:44:30.543Z,66.30
2019-04-23T22:49:40.657Z,67.50
2019-04-23T22:52:19.042Z,66.80
2019-04-23T22:54:30.518Z,66.90
2019-04-23T22:59:35.433Z,67.00
2019-04-23T23:02:18.148Z,67.00
2019-04-23T23:04:40.109Z,67.10
2019-04-23T23:07:09.036Z,67.10
2019-04-23T23:09:43.490Z,67.10
2019-04-23T23:12:14.402Z,67.10
2019-04-23T23:14:45.921Z,67.10
2019-04-23T23:19:49.278Z,67.30
2019-04-23T23:24:50.194Z,67.60
2019-04-23T23:27:13.235Z,67.70
2019-04-23T23:29:53.554Z,67.80
2019-04-23T23:32:14.929Z,67.70
2019-04-23T23:35:04.372Z,67.60
2019-04-23T23:39:49.653Z,67.80
2019-04-23T23:49:58.692Z,67.90
2019-04-23T23:52:09.619Z,67.80
2019-04-23T23:54:44.878Z,67.90
